sensor_id;sensor_type;location;lat;lon;timestamp;pressure;altitude;pressure_sealevel;temperature;humidity
19108;BME280;9686;48.832;9.126;2023-08-17T00:00:13;98334.69;;;24.66;nan
19108;BME280;9686;48.832;9.126;2023-08-17T00:02:42;98332.41;;;24.59;nan
19108;BME280;9686;48.832;9.126;2023-08-17T00:05:07;98325.59;;;25.12;nan
19108;BME280;9686;48.832;9.126;2023-08-17T00:07:34;98314.22;;;25.64;nan
19108;BME280;9686;48.832;9.126;2023-08-17T00:09:59;98321.25;;;25.52;nan
19108;BME280;9686;48.832;9.126;2023-08-17T00:12:25;98310.34;;;25.56;nan
19108;BME280;9686;48.832;9.126;2023-08-17T00:14:51;98311.44;;;25.66;nan
19108;BME280;9686;48.832;9.126;2023-08-17T00:17:16;98310.47;;;25.54;nan
19108;BME280;9686;48.832;9.126;2023-08-17T00:19:41;98319.25;;;25.42;nan
19108;BME280;9686;48.832;9.126;2023-08-17T00:22:07;98328.56;;;25.49;nan
19108;BME280;9686;48.832;9.126;2023-08-17T00:24:32;98322.22;;;25.37;nan
19108;BME280;9686;48.832;9.126;2023-08-17T00:26:57;98324.97;;;25.36;nan
19108;BME280;9686;48.832;9.126;2023-08-17T00:29:22;98313.38;;;25.64;nan
19108;BME280;9686;48.832;9.126;2023-08-17T00:31:48;98308.78;;;25.66;nan
19108;BME280;9686;48.832;9.126;2023-08-17T00:34:13;98307.38;;;25.60;nan
19108;BME280;9686;48.832;9.126;2023-08-17T00:36:38;98297.72;;;25.72;nan
19108;BME280;9686;48.832;9.126;2023-08-17T00:39:04;98294.97;;;25.59;nan
19108;BME280;9686;48.832;9.126;2023-08-17T00:41:29;98297.81;;;25.70;nan
19108;BME280;9686;48.832;9.126;2023-08-17T00:43:55;98289.19;;;25.52;nan
19108;BME280;9686;48.832;9.126;2023-08-17T00:46:21;98288.88;;;25.57;nan
19108;BME280;9686;48.832;9.126;2023-08-17T00:48:48;98304.72;;;25.46;nan
19108;BME280;9686;48.832;9.126;2023-08-17T00:51:14;98295.97;;;25.44;nan
19108;BME280;9686;48.832;9.126;2023-08-17T00:53:40;98295.16;;;25.70;nan
19108;BME280;9686;48.832;9.126;2023-08-17T00:56:06;98288.28;;;25.66;nan
19108;BME280;9686;48.832;9.126;2023-08-17T00:58:31;98284.38;;;25.72;nan
19108;BME280;9686;48.832;9.126;2023-08-17T01:00:58;98289.06;;;25.68;nan
19108;BME280;9686;48.832;9.126;2023-08-17T01:03:23;98294.88;;;25.61;nan
19108;BME280;9686;48.832;9.126;2023-08-17T01:05:49;98289.19;;;25.52;nan
19108;BME280;9686;48.832;9.126;2023-08-17T01:08:14;98288.28;;;25.66;nan
19108;BME280;9686;48.832;9.126;2023-08-17T01:10:52;98285.53;;;25.68;nan
19108;BME280;9686;48.832;9.126;2023-08-17T01:16:12;98301.66;;;25.25;nan
19108;BME280;9686;48.832;9.126;2023-08-17T01:18:40;98296.72;;;25.46;nan
19108;BME280;9686;48.832;9.126;2023-08-17T01:21:06;98299.91;;;25.38;nan
19108;BME280;9686;48.832;9.126;2023-08-17T01:23:33;98297.84;;;25.29;nan
19108;BME280;9686;48.832;9.126;2023-08-17T01:25:58;98298.78;;;25.28;nan
19108;BME280;9686;48.832;9.126;2023-08-17T01:28:24;98301.72;;;25.38;nan
19108;BME280;9686;48.832;9.126;2023-08-17T01:30:55;98294.38;;;25.41;nan
19108;BME280;9686;48.832;9.126;2023-08-17T01:33:36;98288.91;;;25.43;nan
19108;BME280;9686;48.832;9.126;2023-08-17T01:36:22;98292.03;;;25.49;nan
19108;BME280;9686;48.832;9.126;2023-08-17T01:38:51;98291.00;;;25.52;nan
19108;BME280;9686;48.832;9.126;2023-08-17T01:41:17;98288.78;;;25.59;nan
19108;BME280;9686;48.832;9.126;2023-08-17T01:43:43;98287.75;;;25.47;nan
19108;BME280;9686;48.832;9.126;2023-08-17T01:46:17;98278.63;;;25.51;nan
19108;BME280;9686;48.832;9.126;2023-08-17T01:48:45;98273.56;;;25.46;nan
19108;BME280;9686;48.832;9.126;2023-08-17T01:51:18;98275.53;;;25.57;nan
19108;BME280;9686;48.832;9.126;2023-08-17T01:53:45;98280.03;;;25.57;nan
19108;BME280;9686;48.832;9.126;2023-08-17T01:56:10;98282.91;;;25.54;nan
19108;BME280;9686;48.832;9.126;2023-08-17T01:58:35;98275.66;;;25.56;nan
19108;BME280;9686;48.832;9.126;2023-08-17T02:01:01;98284.50;;;25.56;nan
19108;BME280;9686;48.832;9.126;2023-08-17T02:03:26;98288.50;;;25.49;nan
19108;BME280;9686;48.832;9.126;2023-08-17T02:05:55;98278.31;;;25.56;nan
19108;BME280;9686;48.832;9.126;2023-08-17T02:08:21;98275.91;;;25.24;nan
19108;BME280;9686;48.832;9.126;2023-08-17T02:10:46;98278.66;;;25.23;nan
19108;BME280;9686;48.832;9.126;2023-08-17T02:13:11;98271.94;;;25.44;nan
19108;BME280;9686;48.832;9.126;2023-08-17T02:15:39;98268.78;;;25.25;nan
19108;BME280;9686;48.832;9.126;2023-08-17T02:18:05;98273.38;;;24.80;nan
19108;BME280;9686;48.832;9.126;2023-08-17T02:20:30;98270.03;;;24.90;nan
19108;BME280;9686;48.832;9.126;2023-08-17T02:22:55;98281.84;;;24.86;nan
19108;BME280;9686;48.832;9.126;2023-08-17T02:25:21;98267.75;;;24.84;nan
19108;BME280;9686;48.832;9.126;2023-08-17T02:27:46;98274.03;;;24.83;nan
19108;BME280;9686;48.832;9.126;2023-08-17T02:30:12;98274.91;;;24.84;nan
19108;BME280;9686;48.832;9.126;2023-08-17T02:32:37;98272.53;;;24.79;nan
19108;BME280;9686;48.832;9.126;2023-08-17T02:35:03;98273.69;;;24.75;nan
19108;BME280;9686;48.832;9.126;2023-08-17T02:37:28;98267.00;;;24.68;nan
19108;BME280;9686;48.832;9.126;2023-08-17T02:39:53;98268.44;;;24.74;nan
19108;BME280;9686;48.832;9.126;2023-08-17T02:42:19;98263.09;;;24.74;nan
19108;BME280;9686;48.832;9.126;2023-08-17T02:44:44;98264.63;;;24.78;nan
19108;BME280;9686;48.832;9.126;2023-08-17T02:47:10;98259.19;;;24.79;nan
19108;BME280;9686;48.832;9.126;2023-08-17T02:49:35;98265.88;;;24.72;nan
19108;BME280;9686;48.832;9.126;2023-08-17T02:52:00;98263.00;;;24.75;nan
19108;BME280;9686;48.832;9.126;2023-08-17T02:54:26;98256.31;;;24.68;nan
19108;BME280;9686;48.832;9.126;2023-08-17T02:56:51;98255.00;;;24.61;nan
19108;BME280;9686;48.832;9.126;2023-08-17T02:59:16;98248.53;;;24.65;nan
19108;BME280;9686;48.832;9.126;2023-08-17T03:01:44;98248.25;;;24.55;nan
19108;BME280;9686;48.832;9.126;2023-08-17T03:04:09;98250.72;;;24.58;nan
19108;BME280;9686;48.832;9.126;2023-08-17T03:06:35;98246.91;;;24.63;nan
19108;BME280;9686;48.832;9.126;2023-08-17T03:09:00;98236.06;;;24.51;nan
19108;BME280;9686;48.832;9.126;2023-08-17T03:11:25;98238.94;;;24.48;nan
19108;BME280;9686;48.832;9.126;2023-08-17T03:13:51;98239.50;;;24.53;nan
19108;BME280;9686;48.832;9.126;2023-08-17T03:16:16;98235.97;;;24.53;nan
19108;BME280;9686;48.832;9.126;2023-08-17T03:18:41;98232.44;;;24.52;nan
19108;BME280;9686;48.832;9.126;2023-08-17T03:21:08;98234.16;;;24.39;nan
19108;BME280;9686;48.832;9.126;2023-08-17T03:23:33;98231.19;;;24.44;nan
19108;BME280;9686;48.832;9.126;2023-08-17T03:25:58;98235.75;;;24.42;nan
19108;BME280;9686;48.832;9.126;2023-08-17T03:28:24;98228.44;;;24.45;nan
19108;BME280;9686;48.832;9.126;2023-08-17T03:30:55;98232.44;;;24.52;nan
19108;BME280;9686;48.832;9.126;2023-08-17T03:33:20;98229.38;;;24.58;nan
19108;BME280;9686;48.832;9.126;2023-08-17T03:35:45;98230.34;;;24.57;nan
19108;BME280;9686;48.832;9.126;2023-08-17T03:38:10;98221.28;;;24.60;nan
19108;BME280;9686;48.832;9.126;2023-08-17T03:40:36;98227.38;;;24.62;nan
19108;BME280;9686;48.832;9.126;2023-08-17T03:43:01;98232.97;;;24.72;nan
19108;BME280;9686;48.832;9.126;2023-08-17T03:45:26;98234.63;;;24.74;nan
19108;BME280;9686;48.832;9.126;2023-08-17T03:47:52;98233.56;;;24.63;nan
19108;BME280;9686;48.832;9.126;2023-08-17T03:50:17;98247.19;;;24.58;nan
19108;BME280;9686;48.832;9.126;2023-08-17T03:52:42;98242.53;;;24.76;nan
19108;BME280;9686;48.832;9.126;2023-08-17T03:55:08;98240.13;;;24.71;nan
19108;BME280;9686;48.832;9.126;2023-08-17T03:57:33;98247.38;;;24.69;nan
19108;BME280;9686;48.832;9.126;2023-08-17T03:59:58;98249.75;;;24.59;nan
19108;BME280;9686;48.832;9.126;2023-08-17T04:02:24;98247.19;;;24.72;nan
19108;BME280;9686;48.832;9.126;2023-08-17T04:04:49;98249.28;;;24.67;nan
19108;BME280;9686;48.832;9.126;2023-08-17T04:07:20;98252.63;;;24.56;nan
19108;BME280;9686;48.832;9.126;2023-08-17T04:09:46;98249.00;;;24.57;nan
19108;BME280;9686;48.832;9.126;2023-08-17T04:12:11;98252.34;;;24.61;nan
19108;BME280;9686;48.832;9.126;2023-08-17T04:14:36;98246.41;;;24.84;nan
19108;BME280;9686;48.832;9.126;2023-08-17T04:17:02;98252.00;;;24.94;nan
19108;BME280;9686;48.832;9.126;2023-08-17T04:19:27;98253.53;;;24.98;nan
19108;BME280;9686;48.832;9.126;2023-08-17T04:21:52;98251.66;;;24.86;nan
19108;BME280;9686;48.832;9.126;2023-08-17T04:24:18;98257.34;;;24.94;nan
19108;BME280;9686;48.832;9.126;2023-08-17T04:26:43;98260.63;;;24.99;nan
19108;BME280;9686;48.832;9.126;2023-08-17T04:29:08;98267.16;;;24.94;nan
19108;BME280;9686;48.832;9.126;2023-08-17T04:31:34;98269.16;;;24.90;nan
19108;BME280;9686;48.832;9.126;2023-08-17T04:33:59;98269.75;;;24.81;nan
19108;BME280;9686;48.832;9.126;2023-08-17T04:36:24;98262.59;;;24.96;nan
19108;BME280;9686;48.832;9.126;2023-08-17T04:38:49;98264.78;;;24.89;nan
19108;BME280;9686;48.832;9.126;2023-08-17T04:41:15;98270.88;;;24.91;nan
19108;BME280;9686;48.832;9.126;2023-08-17T04:43:41;98265.19;;;24.83;nan
19108;BME280;9686;48.832;9.126;2023-08-17T04:46:08;98267.75;;;24.84;nan
19108;BME280;9686;48.832;9.126;2023-08-17T04:48:33;98270.13;;;24.89;nan
19108;BME280;9686;48.832;9.126;2023-08-17T04:50:58;98268.13;;;24.92;nan
19108;BME280;9686;48.832;9.126;2023-08-17T04:53:24;98272.03;;;24.87;nan
19108;BME280;9686;48.832;9.126;2023-08-17T04:55:49;98271.38;;;24.83;nan
19108;BME280;9686;48.832;9.126;2023-08-17T04:58:14;98279.63;;;24.93;nan
19108;BME280;9686;48.832;9.126;2023-08-17T05:00:39;98279.38;;;24.83;nan
19108;BME280;9686;48.832;9.126;2023-08-17T05:03:05;98278.63;;;24.81;nan
19108;BME280;9686;48.832;9.126;2023-08-17T05:05:30;98274.03;;;24.83;nan
19108;BME280;9686;48.832;9.126;2023-08-17T05:07:55;98281.75;;;24.88;nan
19108;BME280;9686;48.832;9.126;2023-08-17T05:10:21;98273.94;;;24.85;nan
19108;BME280;9686;48.832;9.126;2023-08-17T05:12:46;98274.81;;;24.85;nan
19108;BME280;9686;48.832;9.126;2023-08-17T05:15:12;98286.06;;;24.76;nan
19108;BME280;9686;48.832;9.126;2023-08-17T05:17:37;98290.53;;;24.76;nan
19108;BME280;9686;48.832;9.126;2023-08-17T05:20:03;98286.06;;;24.76;nan
19108;BME280;9686;48.832;9.126;2023-08-17T05:22:29;98293.84;;;24.79;nan
19108;BME280;9686;48.832;9.126;2023-08-17T05:24:55;98293.38;;;24.87;nan
19108;BME280;9686;48.832;9.126;2023-08-17T05:27:20;98292.72;;;24.83;nan
19108;BME280;9686;48.832;9.126;2023-08-17T05:29:46;98279.38;;;24.83;nan
19108;BME280;9686;48.832;9.126;2023-08-17T05:32:11;98287.47;;;24.82;nan
19108;BME280;9686;48.832;9.126;2023-08-17T05:34:36;98293.47;;;24.85;nan
19108;BME280;9686;48.832;9.126;2023-08-17T05:37:01;98288.13;;;24.85;nan
19108;BME280;9686;48.832;9.126;2023-08-17T05:39:28;98289.09;;;24.84;nan
19108;BME280;9686;48.832;9.126;2023-08-17T05:41:53;98294.31;;;24.86;nan
19108;BME280;9686;48.832;9.126;2023-08-17T05:44:18;98289.56;;;24.91;nan
19108;BME280;9686;48.832;9.126;2023-08-17T05:46:44;98291.25;;;24.92;nan
19108;BME280;9686;48.832;9.126;2023-08-17T05:49:09;98282.44;;;25.06;nan
19108;BME280;9686;48.832;9.126;2023-08-17T05:51:34;98277.75;;;25.09;nan
19108;BME280;9686;48.832;9.126;2023-08-17T05:54:00;98278.81;;;25.07;nan
19108;BME280;9686;48.832;9.126;2023-08-17T05:56:25;98272.63;;;25.06;nan
19108;BME280;9686;48.832;9.126;2023-08-17T05:58:50;98282.53;;;25.04;nan
19108;BME280;9686;48.832;9.126;2023-08-17T06:01:15;98282.13;;;25.10;nan
19108;BME280;9686;48.832;9.126;2023-08-17T06:03:41;98287.78;;;25.06;nan
19108;BME280;9686;48.832;9.126;2023-08-17T06:06:06;98296.13;;;25.14;nan
19108;BME280;9686;48.832;9.126;2023-08-17T06:08:32;98297.19;;;25.11;nan
19108;BME280;9686;48.832;9.126;2023-08-17T06:10:57;98302.03;;;25.19;nan
19108;BME280;9686;48.832;9.126;2023-08-17T06:13:23;98297.28;;;25.10;nan
19108;BME280;9686;48.832;9.126;2023-08-17T06:15:48;98301.97;;;25.06;nan
19108;BME280;9686;48.832;9.126;2023-08-17T06:18:14;98299.56;;;25.16;nan
19108;BME280;9686;48.832;9.126;2023-08-17T06:20:39;98301.19;;;25.18;nan
19108;BME280;9686;48.832;9.126;2023-08-17T06:23:04;98314.81;;;25.14;nan
19108;BME280;9686;48.832;9.126;2023-08-17T06:25:30;98309.19;;;25.18;nan
19108;BME280;9686;48.832;9.126;2023-08-17T06:27:55;98311.00;;;25.18;nan
19108;BME280;9686;48.832;9.126;2023-08-17T06:30:21;98304.81;;;25.17;nan
19108;BME280;9686;48.832;9.126;2023-08-17T06:32:46;98301.19;;;25.18;nan
19108;BME280;9686;48.832;9.126;2023-08-17T06:35:11;98297.84;;;25.29;nan
19108;BME280;9686;48.832;9.126;2023-08-17T06:37:36;98289.94;;;25.28;nan
19108;BME280;9686;48.832;9.126;2023-08-17T06:40:03;98292.88;;;25.23;nan
19108;BME280;9686;48.832;9.126;2023-08-17T06:42:30;98292.81;;;25.25;nan
19108;BME280;9686;48.832;9.126;2023-08-17T06:44:55;98292.84;;;25.37;nan
19108;BME280;9686;48.832;9.126;2023-08-17T06:47:21;98282.47;;;25.33;nan
19108;BME280;9686;48.832;9.126;2023-08-17T06:49:46;98291.66;;;25.29;nan
19108;BME280;9686;48.832;9.126;2023-08-17T06:52:11;98284.28;;;25.32;nan
19108;BME280;9686;48.832;9.126;2023-08-17T06:54:36;98288.97;;;25.29;nan
19108;BME280;9686;48.832;9.126;2023-08-17T06:57:02;98289.53;;;25.34;nan
19108;BME280;9686;48.832;9.126;2023-08-17T06:59:27;98286.22;;;25.30;nan
19108;BME280;9686;48.832;9.126;2023-08-17T07:01:52;98283.22;;;25.35;nan
19108;BME280;9686;48.832;9.126;2023-08-17T07:04:18;98287.09;;;25.43;nan
19108;BME280;9686;48.832;9.126;2023-08-17T07:06:43;98293.72;;;25.38;nan
19108;BME280;9686;48.832;9.126;2023-08-17T07:09:08;98288.72;;;25.46;nan
19108;BME280;9686;48.832;9.126;2023-08-17T07:11:36;98292.69;;;25.67;nan
19108;BME280;9686;48.832;9.126;2023-08-17T07:14:02;98287.88;;;25.99;nan
19108;BME280;9686;48.832;9.126;2023-08-17T07:16:27;98287.81;;;26.13;nan
19108;BME280;9686;48.832;9.126;2023-08-17T07:18:52;98286.94;;;26.26;nan
19108;BME280;9686;48.832;9.126;2023-08-17T07:21:18;98285.34;;;27.25;nan
19108;BME280;9686;48.832;9.126;2023-08-17T07:23:44;98289.28;;;27.32;nan
19108;BME280;9686;48.832;9.126;2023-08-17T07:26:10;98285.66;;;27.33;nan
19108;BME280;9686;48.832;9.126;2023-08-17T07:28:35;98278.72;;;27.18;nan
19108;BME280;9686;48.832;9.126;2023-08-17T07:31:00;98284.47;;;27.24;nan
19108;BME280;9686;48.832;9.126;2023-08-17T07:33:26;98287.38;;;27.21;nan
19108;BME280;9686;48.832;9.126;2023-08-17T07:35:51;98282.78;;;27.23;nan
19108;BME280;9686;48.832;9.126;2023-08-17T07:38:18;98283.63;;;27.24;nan
19108;BME280;9686;48.832;9.126;2023-08-17T07:40:43;98285.09;;;27.41;nan
19108;BME280;9686;48.832;9.126;2023-08-17T07:43:08;98277.22;;;27.50;nan
19108;BME280;9686;48.832;9.126;2023-08-17T07:45:34;98282.69;;;27.49;nan
19108;BME280;9686;48.832;9.126;2023-08-17T07:47:59;98280.88;;;27.62;nan
19108;BME280;9686;48.832;9.126;2023-08-17T07:50:24;98282.97;;;27.70;nan
19108;BME280;9686;48.832;9.126;2023-08-17T07:52:49;98273.09;;;27.70;nan
19108;BME280;9686;48.832;9.126;2023-08-17T07:55:15;98276.97;;;27.66;nan
19108;BME280;9686;48.832;9.126;2023-08-17T07:57:40;98277.47;;;27.71;nan
19108;BME280;9686;48.832;9.126;2023-08-17T08:00:06;98273.75;;;27.61;nan
19108;BME280;9686;48.832;9.126;2023-08-17T08:02:31;98271.00;;;27.62;nan
19108;BME280;9686;48.832;9.126;2023-08-17T08:04:56;98269.44;;;27.71;nan
19108;BME280;9686;48.832;9.126;2023-08-17T08:07:22;98268.47;;;27.72;nan
19108;BME280;9686;48.832;9.126;2023-08-17T08:09:47;98272.41;;;27.79;nan
19108;BME280;9686;48.832;9.126;2023-08-17T08:12:12;98262.03;;;27.75;nan
19108;BME280;9686;48.832;9.126;2023-08-17T08:14:37;98261.69;;;27.79;nan
19108;BME280;9686;48.832;9.126;2023-08-17T08:17:03;98262.53;;;27.80;nan
19108;BME280;9686;48.832;9.126;2023-08-17T08:19:28;98256.25;;;27.92;nan
19108;BME280;9686;48.832;9.126;2023-08-17T08:21:53;98254.31;;;27.94;nan
19108;BME280;9686;48.832;9.126;2023-08-17T08:24:18;98257.25;;;28.02;nan
19108;BME280;9686;48.832;9.126;2023-08-17T08:26:44;98245.22;;;28.08;nan
19108;BME280;9686;48.832;9.126;2023-08-17T08:29:09;98248.00;;;28.06;nan
19108;BME280;9686;48.832;9.126;2023-08-17T08:31:34;98257.50;;;28.10;nan
19108;BME280;9686;48.832;9.126;2023-08-17T08:34:00;98242.69;;;28.17;nan
19108;BME280;9686;48.832;9.126;2023-08-17T08:36:25;98255.00;;;28.20;nan
19108;BME280;9686;48.832;9.126;2023-08-17T08:38:50;98250.03;;;28.27;nan
19108;BME280;9686;48.832;9.126;2023-08-17T08:41:16;98247.50;;;28.25;nan
19108;BME280;9686;48.832;9.126;2023-08-17T08:43:42;98253.50;;;28.40;nan
19108;BME280;9686;48.832;9.126;2023-08-17T08:46:08;98257.28;;;28.37;nan
19108;BME280;9686;48.832;9.126;2023-08-17T08:48:35;98247.28;;;28.50;nan
19108;BME280;9686;48.832;9.126;2023-08-17T08:51:00;98257.44;;;28.69;nan
19108;BME280;9686;48.832;9.126;2023-08-17T08:53:32;98254.63;;;28.71;nan
19108;BME280;9686;48.832;9.126;2023-08-17T08:56:01;98248.91;;;28.64;nan
19108;BME280;9686;48.832;9.126;2023-08-17T08:58:27;98262.53;;;28.72;nan
19108;BME280;9686;48.832;9.126;2023-08-17T09:00:54;98248.91;;;28.86;nan
19108;BME280;9686;48.832;9.126;2023-08-17T09:03:20;98246.81;;;28.68;nan
19108;BME280;9686;48.832;9.126;2023-08-17T09:05:50;98243.25;;;28.78;nan
19108;BME280;9686;48.832;9.126;2023-08-17T09:08:20;98246.94;;;28.77;nan
19108;BME280;9686;48.832;9.126;2023-08-17T09:10:46;98240.84;;;28.86;nan
19108;BME280;9686;48.832;9.126;2023-08-17T09:13:12;98241.34;;;28.92;nan
19108;BME280;9686;48.832;9.126;2023-08-17T09:15:37;98239.66;;;28.91;nan
19108;BME280;9686;48.832;9.126;2023-08-17T09:18:05;98237.03;;;28.55;nan
19108;BME280;9686;48.832;9.126;2023-08-17T09:20:37;98244.72;;;28.60;nan
19108;BME280;9686;48.832;9.126;2023-08-17T09:23:04;98245.69;;;28.59;nan
19108;BME280;9686;48.832;9.126;2023-08-17T09:25:31;98239.88;;;28.65;nan
19108;BME280;9686;48.832;9.126;2023-08-17T09:27:57;98246.19;;;28.75;nan
19108;BME280;9686;48.832;9.126;2023-08-17T09:30:22;98247.81;;;28.89;nan
19108;BME280;9686;48.832;9.126;2023-08-17T09:32:47;98237.03;;;29.11;nan
19108;BME280;9686;48.832;9.126;2023-08-17T09:35:14;98225.41;;;29.33;nan
19108;BME280;9686;48.832;9.126;2023-08-17T09:37:40;98227.97;;;29.35;nan
19108;BME280;9686;48.832;9.126;2023-08-17T09:40:05;98231.50;;;29.46;nan
19108;BME280;9686;48.832;9.126;2023-08-17T09:42:34;98240.06;;;29.29;nan
19108;BME280;9686;48.832;9.126;2023-08-17T09:45:00;98230.19;;;29.30;nan
19108;BME280;9686;48.832;9.126;2023-08-17T09:47:26;98242.91;;;29.05;nan
19108;BME280;9686;48.832;9.126;2023-08-17T09:49:53;98233.47;;;30.08;nan
19108;BME280;9686;48.832;9.126;2023-08-17T09:52:22;98221.16;;;30.57;nan
19108;BME280;9686;48.832;9.126;2023-08-17T09:54:49;98217.03;;;30.84;nan
19108;BME280;9686;48.832;9.126;2023-08-17T09:57:15;98221.59;;;30.93;nan
19108;BME280;9686;48.832;9.126;2023-08-17T09:59:41;98218.59;;;31.17;nan
19108;BME280;9686;48.832;9.126;2023-08-17T10:02:32;98212.94;;;31.29;nan
19108;BME280;9686;48.832;9.126;2023-08-17T10:04:59;98212.38;;;31.26;nan
19108;BME280;9686;48.832;9.126;2023-08-17T10:07:29;98209.41;;;31.39;nan
19108;BME280;9686;48.832;9.126;2023-08-17T10:10:03;98209.84;;;31.34;nan
19108;BME280;9686;48.832;9.126;2023-08-17T10:12:34;98207.72;;;31.28;nan
19108;BME280;9686;48.832;9.126;2023-08-17T10:15:07;98213.63;;;30.72;nan
19108;BME280;9686;48.832;9.126;2023-08-17T10:17:39;98208.97;;;30.84;nan
19108;BME280;9686;48.832;9.126;2023-08-17T10:20:07;98203.94;;;31.10;nan
19108;BME280;9686;48.832;9.126;2023-08-17T10:25:11;98200.22;;;31.60;nan
19108;BME280;9686;48.832;9.126;2023-08-17T10:27:39;98195.41;;;31.74;nan
19108;BME280;9686;48.832;9.126;2023-08-17T10:30:06;98203.19;;;31.67;nan
19108;BME280;9686;48.832;9.126;2023-08-17T10:32:33;98196.22;;;31.65;nan
19108;BME280;9686;48.832;9.126;2023-08-17T10:34:58;98190.81;;;32.13;nan
19108;BME280;9686;48.832;9.126;2023-08-17T10:37:24;98197.06;;;32.13;nan
19108;BME280;9686;48.832;9.126;2023-08-17T10:39:50;98188.53;;;32.37;nan
19108;BME280;9686;48.832;9.126;2023-08-17T10:42:30;98196.97;;;32.62;nan
19108;BME280;9686;48.832;9.126;2023-08-17T10:44:57;98191.16;;;32.57;nan
19108;BME280;9686;48.832;9.126;2023-08-17T10:47:24;98195.66;;;32.66;nan
19108;BME280;9686;48.832;9.126;2023-08-17T10:50:03;98193.44;;;32.51;nan
19108;BME280;9686;48.832;9.126;2023-08-17T10:52:33;98193.94;;;32.37;nan
19108;BME280;9686;48.832;9.126;2023-08-17T10:55:00;98185.81;;;32.37;nan
19108;BME280;9686;48.832;9.126;2023-08-17T10:57:39;98183.41;;;32.71;nan
19108;BME280;9686;48.832;9.126;2023-08-17T11:02:33;98185.47;;;32.50;nan
19108;BME280;9686;48.832;9.126;2023-08-17T11:04:59;98182.38;;;32.55;nan
19108;BME280;9686;48.832;9.126;2023-08-17T11:07:25;98182.59;;;32.14;nan
19108;BME280;9686;48.832;9.126;2023-08-17T11:09:53;98176.34;;;32.14;nan
19108;BME280;9686;48.832;9.126;2023-08-17T11:12:25;98185.22;;;32.90;nan
19108;BME280;9686;48.832;9.126;2023-08-17T11:14:51;98179.69;;;33.09;nan
19108;BME280;9686;48.832;9.126;2023-08-17T11:17:16;98169.78;;;33.00;nan
19108;BME280;9686;48.832;9.126;2023-08-17T11:19:41;98168.91;;;33.27;nan
19108;BME280;9686;48.832;9.126;2023-08-17T11:22:07;98166.84;;;32.94;nan
19108;BME280;9686;48.832;9.126;2023-08-17T11:24:33;98163.47;;;33.37;nan
19108;BME280;9686;48.832;9.126;2023-08-17T11:26:58;98166.31;;;33.71;nan
19108;BME280;9686;48.832;9.126;2023-08-17T11:29:24;98164.59;;;33.70;nan
19108;BME280;9686;48.832;9.126;2023-08-17T11:31:50;98166.50;;;33.87;nan
19108;BME280;9686;48.832;9.126;2023-08-17T11:34:15;98166.06;;;34.00;nan
19108;BME280;9686;48.832;9.126;2023-08-17T11:36:41;98165.13;;;34.35;nan
19108;BME280;9686;48.832;9.126;2023-08-17T11:39:06;98156.56;;;34.40;nan
19108;BME280;9686;48.832;9.126;2023-08-17T11:41:32;98164.13;;;35.04;nan
19108;BME280;9686;48.832;9.126;2023-08-17T11:43:57;98175.66;;;35.06;nan
19108;BME280;9686;48.832;9.126;2023-08-17T11:46:23;98167.50;;;34.64;nan
19108;BME280;9686;48.832;9.126;2023-08-17T11:48:50;98173.97;;;34.71;nan
19108;BME280;9686;48.832;9.126;2023-08-17T11:51:28;98175.44;;;35.42;nan
19108;BME280;9686;48.832;9.126;2023-08-17T11:53:58;98177.25;;;35.33;nan
19108;BME280;9686;48.832;9.126;2023-08-17T11:56:23;98179.59;;;34.78;nan
19108;BME280;9686;48.832;9.126;2023-08-17T11:58:49;98165.50;;;34.14;nan
19108;BME280;9686;48.832;9.126;2023-08-17T12:01:14;98165.75;;;34.55;nan
19108;BME280;9686;48.832;9.126;2023-08-17T12:03:41;98168.22;;;34.40;nan
19108;BME280;9686;48.832;9.126;2023-08-17T12:06:07;98174.81;;;35.06;nan
19108;BME280;9686;48.832;9.126;2023-08-17T12:08:32;98183.66;;;34.82;nan
19108;BME280;9686;48.832;9.126;2023-08-17T12:10:58;98193.59;;;34.39;nan
19108;BME280;9686;48.832;9.126;2023-08-17T12:13:32;98194.94;;;34.17;nan
19108;BME280;9686;48.832;9.126;2023-08-17T12:15:57;98197.69;;;33.99;nan
19108;BME280;9686;48.832;9.126;2023-08-17T12:18:24;98201.00;;;34.11;nan
19108;BME280;9686;48.832;9.126;2023-08-17T12:20:54;98196.97;;;34.15;nan
19108;BME280;9686;48.832;9.126;2023-08-17T12:23:19;98196.91;;;34.33;nan
19108;BME280;9686;48.832;9.126;2023-08-17T12:25:44;98196.44;;;34.12;nan
19108;BME280;9686;48.832;9.126;2023-08-17T12:28:13;98193.66;;;34.03;nan
19108;BME280;9686;48.832;9.126;2023-08-17T12:30:38;98187.72;;;33.64;nan
19108;BME280;9686;48.832;9.126;2023-08-17T12:33:04;98186.66;;;33.57;nan
19108;BME280;9686;48.832;9.126;2023-08-17T12:35:32;98180.56;;;33.28;nan
19108;BME280;9686;48.832;9.126;2023-08-17T12:37:57;98181.72;;;33.07;nan
19108;BME280;9686;48.832;9.126;2023-08-17T12:40:23;98192.59;;;32.78;nan
19108;BME280;9686;48.832;9.126;2023-08-17T12:42:48;98199.72;;;33.17;nan
19108;BME280;9686;48.832;9.126;2023-08-17T12:45:14;98211.81;;;32.75;nan
19108;BME280;9686;48.832;9.126;2023-08-17T12:47:40;98225.03;;;32.88;nan
19108;BME280;9686;48.832;9.126;2023-08-17T12:50:06;98223.88;;;32.54;nan
19108;BME280;9686;48.832;9.126;2023-08-17T12:52:31;98208.97;;;32.40;nan
19108;BME280;9686;48.832;9.126;2023-08-17T12:54:57;98225.63;;;32.26;nan
19108;BME280;9686;48.832;9.126;2023-08-17T12:57:22;98219.47;;;32.43;nan
19108;BME280;9686;48.832;9.126;2023-08-17T12:59:47;98225.50;;;32.27;nan
19108;BME280;9686;48.832;9.126;2023-08-17T13:02:13;98228.16;;;32.17;nan
19108;BME280;9686;48.832;9.126;2023-08-17T13:04:39;98214.69;;;31.59;nan
19108;BME280;9686;48.832;9.126;2023-08-17T13:07:04;98212.56;;;31.63;nan
19108;BME280;9686;48.832;9.126;2023-08-17T13:09:29;98216.22;;;31.43;nan
19108;BME280;9686;48.832;9.126;2023-08-17T13:11:54;98221.19;;;31.28;nan
19108;BME280;9686;48.832;9.126;2023-08-17T13:14:20;98226.91;;;31.14;nan
19108;BME280;9686;48.832;9.126;2023-08-17T13:16:47;98235.28;;;31.11;nan
19108;BME280;9686;48.832;9.126;2023-08-17T13:19:13;98236.75;;;30.94;nan
19108;BME280;9686;48.832;9.126;2023-08-17T13:21:38;98241.56;;;30.60;nan
19108;BME280;9686;48.832;9.126;2023-08-17T13:24:03;98253.53;;;30.25;nan
19108;BME280;9686;48.832;9.126;2023-08-17T13:26:29;98248.88;;;30.06;nan
19108;BME280;9686;48.832;9.126;2023-08-17T13:28:55;98259.03;;;29.71;nan
19108;BME280;9686;48.832;9.126;2023-08-17T13:31:21;98255.81;;;29.34;nan
19108;BME280;9686;48.832;9.126;2023-08-17T13:33:46;98254.81;;;29.35;nan